createdAt,value
2023-01-04T00:01:32.972Z,101893.81
2023-01-04T00:04:00.913Z,101889.28
2023-01-04T00:06:28.679Z,101893.84
2023-01-04T00:08:56.245Z,101895.28
2023-01-04T00:11:24.778Z,101890.47
2023-01-04T00:13:55.762Z,101892.56
2023-01-04T00:16:25.833Z,101889.19
2023-01-04T00:18:54.469Z,101898.84
2023-01-04T00:21:28.078Z,101896.41
2023-01-04T00:24:01.252Z,101902.81
2023-01-04T00:26:31.451Z,101905.53
2023-01-04T00:29:02.502Z,101904.34
2023-01-04T00:31:30.711Z,101910.44
2023-01-04T00:34:00.824Z,101914.87
2023-01-04T00:36:29.354Z,101922.31
2023-01-04T00:39:09.738Z,101925.53
2023-01-04T00:42:01.961Z,101933.25
2023-01-04T00:44:30.682Z,101927.47
2023-01-04T00:47:00.273Z,101927.47
2023-01-04T00:49:29.254Z,101937.22
2023-01-04T00:51:57.856Z,101929.03
2023-01-04T00:54:26.183Z,101934.25
2023-01-04T00:56:54.092Z,101928.63
2023-01-04T00:59:22.761Z,101927.88
2023-01-04T01:01:51.967Z,101931.97
2023-01-04T01:04:22.631Z,101925.37
2023-01-04T01:06:51.941Z,101919.72
2023-01-04T01:09:22.915Z,101924.53
2023-01-04T01:11:53.115Z,101930.81
2023-01-04T01:14:23.685Z,101936.62
2023-01-04T01:16:55.938Z,101932.66
2023-01-04T01:19:28.778Z,101933.81
2023-01-04T01:21:57.939Z,101938.87
2023-01-04T01:24:26.649Z,101942.94
2023-01-04T01:26:54.894Z,101940.31
2023-01-04T01:29:23.235Z,101939.44
2023-01-04T01:31:51.011Z,101931.44
2023-01-04T01:34:18.579Z,101932.41
2023-01-04T01:36:46.454Z,101932.34
2023-01-04T01:39:14.617Z,101931.09
2023-01-04T01:41:42.682Z,101936.50
2023-01-04T01:44:13.336Z,101927.75
2023-01-04T01:46:45.344Z,101917.41
2023-01-04T01:49:32.568Z,101916.06
2023-01-04T01:52:05.098Z,101917.19
2023-01-04T01:54:36.978Z,101922.19
2023-01-04T01:57:07.526Z,101914.09
2023-01-04T01:59:42.667Z,101916.28
2023-01-04T02:02:11.618Z,101908.72
2023-01-04T02:04:44.639Z,101910.09
2023-01-04T02:07:16.298Z,101914.34
2023-01-04T02:09:46.499Z,101910.91
2023-01-04T02:12:14.795Z,101914.34
2023-01-04T02:14:46.097Z,101918.63
2023-01-04T02:17:37.144Z,101910.22
2023-01-04T02:20:35.929Z,101914.75
2023-01-04T02:23:28.461Z,101914.06
2023-01-04T02:26:20.676Z,101913.59
2023-01-04T02:29:22.808Z,101914.72
2023-01-04T02:32:16.378Z,101915.16
2023-01-04T02:34:54.781Z,101915.13
2023-01-04T02:37:25.578Z,101916.28
2023-01-04T02:40:19.665Z,101913.97
2023-01-04T02:43:17.036Z,101907.66
2023-01-04T02:45:58.899Z,101903.03
2023-01-04T02:48:54.234Z,101908.75
2023-01-04T02:51:34.462Z,101915.28
2023-01-04T02:54:09.036Z,101918.78
2023-01-04T02:56:48.699Z,101915.22
2023-01-04T02:59:41.329Z,101915.91
2023-01-04T03:02:59.087Z,101905.91
2023-01-04T03:06:00.667Z,101911.09
2023-01-04T03:08:39.415Z,101908.50
2023-01-04T03:11:34.183Z,101915.03
2023-01-04T03:14:31.021Z,101907.38
2023-01-04T03:17:07.095Z,101916.81
2023-01-04T03:19:56.408Z,101906.25
2023-01-04T03:23:00.809Z,101904.47
2023-01-04T03:25:53.790Z,101908.72
2023-01-04T03:28:44.519Z,101909.00
2023-01-04T03:31:48.296Z,101915.91
2023-01-04T03:34:35.549Z,101922.69
2023-01-04T03:37:29.496Z,101916.72
2023-01-04T03:40:29.919Z,101924.03
2023-01-04T03:43:39.421Z,101911.19
2023-01-04T03:46:36.091Z,101912.03
2023-01-04T03:49:18.274Z,101920.56
2023-01-04T03:51:48.030Z,101913.09
2023-01-04T03:54:23.708Z,101906.75
2023-01-04T03:56:53.069Z,101908.03
2023-01-04T03:59:22.874Z,101907.87
2023-01-04T04:01:51.305Z,101911.53
2023-01-04T04:04:38.029Z,101905.78
2023-01-04T04:07:24.901Z,101913.06
2023-01-04T04:09:54.746Z,101906.00
2023-01-04T04:12:22.906Z,101910.47
2023-01-04T04:14:50.480Z,101902.22
2023-01-04T04:17:18.377Z,101902.34
2023-01-04T04:19:47.768Z,101900.63
2023-01-04T04:22:15.313Z,101905.47
2023-01-04T04:24:43.448Z,101906.66
2023-01-04T04:27:10.984Z,101906.38
2023-01-04T04:29:40.346Z,101899.94
2023-01-04T04:32:08.303Z,101910.06
2023-01-04T04:34:36.672Z,101915.28
2023-01-04T04:37:04.266Z,101914.91
2023-01-04T04:39:32.788Z,101931.34
2023-01-04T04:42:00.463Z,101926.66
2023-01-04T04:44:28.022Z,101920.00
2023-01-04T04:46:55.822Z,101922.41
2023-01-04T04:49:23.426Z,101927.34
2023-01-04T04:51:51.772Z,101928.03
2023-01-04T04:54:21.252Z,101920.59
2023-01-04T04:56:50.184Z,101920.22
2023-01-04T04:59:18.138Z,101908.66
2023-01-04T05:01:46.445Z,101910.72
2023-01-04T05:04:16.911Z,101918.03
2023-01-04T05:06:45.961Z,101925.34
2023-01-04T05:09:14.398Z,101925.06
2023-01-04T05:12:01.084Z,101929.47
2023-01-04T05:14:29.024Z,101936.06
2023-01-04T05:16:56.667Z,101940.62
2023-01-04T05:19:24.262Z,101936.00
2023-01-04T05:21:52.092Z,101934.34
2023-01-04T05:24:19.684Z,101933.12
2023-01-04T05:26:47.243Z,101935.78
2023-01-04T05:29:35.099Z,101934.69
2023-01-04T05:32:02.818Z,101940.09
2023-01-04T05:34:30.839Z,101936.16
2023-01-04T05:36:58.441Z,101939.66
2023-01-04T05:39:26.108Z,101949.16
2023-01-04T05:42:12.890Z,101940.91
2023-01-04T05:44:40.452Z,101949.28
2023-01-04T05:47:14.518Z,101946.09
2023-01-04T05:49:43.149Z,101936.88
2023-01-04T05:52:11.484Z,101939.84
2023-01-04T05:54:39.081Z,101946.88
2023-01-04T05:57:07.315Z,101943.06
2023-01-04T05:59:41.557Z,101937.69
2023-01-04T06:02:24.521Z,101945.66
2023-01-04T06:04:58.380Z,101950.41
2023-01-04T06:07:28.132Z,101953.81
2023-01-04T06:09:59.104Z,101955.59
2023-01-04T06:12:27.580Z,101958.84
2023-01-04T06:14:55.262Z,101970.41
2023-01-04T06:17:23.084Z,101962.03
2023-01-04T06:19:51.918Z,101970.78
2023-01-04T06:22:20.369Z,101972.81
2023-01-04T06:24:48.317Z,101974.62
2023-01-04T06:27:16.219Z,101982.59
2023-01-04T06:29:44.515Z,101992.37
2023-01-04T06:32:12.517Z,101992.56
2023-01-04T06:34:40.082Z,101986.78
2023-01-04T06:37:07.819Z,101989.00
2023-01-04T06:39:37.357Z,102001.16
2023-01-04T06:42:06.863Z,101997.56
2023-01-04T06:44:35.289Z,101998.75
2023-01-04T06:47:02.916Z,102000.25
2023-01-04T06:49:30.789Z,102003.06
2023-01-04T06:51:58.778Z,102000.31
2023-01-04T06:54:27.059Z,102003.72
2023-01-04T06:56:54.627Z,102007.34
2023-01-04T06:59:22.669Z,102007.88
2023-01-04T07:01:50.366Z,102008.16
2023-01-04T07:04:18.387Z,102011.53
2023-01-04T07:06:46.259Z,102015.91
2023-01-04T07:09:13.892Z,102020.31
2023-01-04T07:11:41.563Z,102019.28
2023-01-04T07:14:09.452Z,102022.28
2023-01-04T07:16:37.302Z,102020.50
2023-01-04T07:19:05.143Z,102019.25
2023-01-04T07:21:33.267Z,102010.63
2023-01-04T07:24:01.248Z,102013.13
2023-01-04T07:26:28.801Z,102017.06
2023-01-04T07:29:14.758Z,102013.88
2023-01-04T07:31:44.804Z,102018.84
2023-01-04T07:34:13.808Z,102009.87
2023-01-04T07:36:41.525Z,102004.22
2023-01-04T07:39:12.805Z,102009.63
2023-01-04T07:41:41.662Z,102014.19
2023-01-04T07:44:10.451Z,102009.16
2023-01-04T07:46:38.686Z,102005.75
2023-01-04T07:49:11.531Z,102004.75
2023-01-04T07:51:42.320Z,102003.41
2023-01-04T07:54:11.384Z,102007.50
2023-01-04T07:56:39.154Z,102006.41
2023-01-04T07:59:08.494Z,102007.59
2023-01-04T08:01:38.521Z,102009.28
2023-01-04T08:04:08.668Z,102008.81
2023-01-04T08:06:37.202Z,102013.37
2023-01-04T08:09:06.552Z,102007.25
2023-01-04T08:11:35.730Z,102008.41
2023-01-04T08:14:03.476Z,101998.06
2023-01-04T08:16:37.842Z,102001.91
2023-01-04T08:19:14.290Z,101999.84
2023-01-04T08:21:42.757Z,102001.75
2023-01-04T08:24:16.047Z,102003.66
2023-01-04T08:26:44.980Z,102002.53
2023-01-04T08:29:13.827Z,101989.53
2023-01-04T08:31:41.796Z,101996.03
2023-01-04T08:34:09.944Z,101995.34
2023-01-04T08:37:03.882Z,101993.31
2023-01-04T08:39:35.498Z,101986.09
2023-01-04T08:42:17.973Z,101994.44
2023-01-04T08:44:48.532Z,101996.22
2023-01-04T08:47:16.401Z,102002.13
2023-01-04T08:49:48.263Z,102004.31
2023-01-04T08:52:16.205Z,102003.41
2023-01-04T08:54:43.867Z,102008.16
2023-01-04T08:57:11.465Z,102005.56
2023-01-04T08:59:40.311Z,102003.50
2023-01-04T09:02:24.685Z,101998.38
2023-01-04T09:04:53.016Z,102002.38
2023-01-04T09:07:20.680Z,102004.25
2023-01-04T09:09:51.708Z,102003.25
2023-01-04T09:12:19.633Z,102006.56
2023-01-04T09:14:47.193Z,102001.41
2023-01-04T09:17:14.855Z,101996.06
2023-01-04T09:19:46.000Z,101996.59
2023-01-04T09:22:13.861Z,101983.84
2023-01-04T09:24:42.067Z,101988.56
2023-01-04T09:27:09.605Z,101979.13
2023-01-04T09:29:41.419Z,101988.53
2023-01-04T09:32:16.119Z,101975.81
2023-01-04T09:34:45.209Z,101977.94
2023-01-04T09:37:13.323Z,101980.19
2023-01-04T09:39:42.051Z,101977.16
2023-01-04T09:42:38.342Z,101973.94
2023-01-04T09:45:25.672Z,101977.91
2023-01-04T09:48:13.235Z,101972.03
2023-01-04T09:50:53.773Z,101968.72
2023-01-04T09:53:37.144Z,101953.84
2023-01-04T09:56:23.826Z,101957.62
2023-01-04T09:58:53.444Z,101959.84
2023-01-04T10:01:28.741Z,101943.69
2023-01-04T10:04:19.129Z,101951.53
2023-01-04T10:06:46.899Z,101945.78
2023-01-04T10:09:17.120Z,101934.75
2023-01-04T10:11:59.567Z,101936.50
2023-01-04T10:14:36.308Z,101946.16
2023-01-04T10:17:55.204Z,101944.66
2023-01-04T10:23:32.685Z,101943.34
2023-01-04T10:26:03.610Z,101938.28
2023-01-04T10:28:45.984Z,101939.59
2023-01-04T10:31:40.099Z,101934.13
2023-01-04T10:34:27.305Z,101942.34
2023-01-04T10:37:04.260Z,101932.56
2023-01-04T10:39:35.991Z,101932.25
2023-01-04T10:42:17.719Z,101925.91
2023-01-04T10:44:57.251Z,101933.34
2023-01-04T10:47:38.010Z,101923.34
2023-01-04T10:50:50.155Z,101926.56
2023-01-04T10:53:18.102Z,101925.13
2023-01-04T10:56:25.046Z,101913.75
2023-01-04T10:58:50.771Z,101931.16
2023-01-04T11:01:28.905Z,101932.38
2023-01-04T11:04:21.520Z,101917.66
2023-01-04T11:07:12.538Z,101927.50
2023-01-04T11:09:46.240Z,101923.97
2023-01-04T11:12:17.162Z,101923.28
2023-01-04T11:14:44.987Z,101907.78
2023-01-04T11:17:13.230Z,101908.22
2023-01-04T11:19:42.725Z,101914.53
2023-01-04T11:22:43.448Z,101899.22
2023-01-04T11:25:36.420Z,101891.91
2023-01-04T11:28:29.883Z,101884.41
2023-01-04T11:31:33.428Z,101889.56
2023-01-04T11:34:03.065Z,101890.34
2023-01-04T11:36:45.195Z,101894.66
2023-01-04T11:39:23.808Z,101894.16
2023-01-04T11:42:04.017Z,101895.97
2023-01-04T11:44:35.914Z,101890.28
2023-01-04T11:47:19.943Z,101896.03
2023-01-04T11:49:48.386Z,101885.66
2023-01-04T11:52:32.303Z,101884.34
2023-01-04T11:55:24.823Z,101882.66
2023-01-04T11:58:11.684Z,101872.44
2023-01-04T12:00:49.425Z,101866.16
2023-01-04T12:03:32.087Z,101865.38
2023-01-04T12:05:59.654Z,101874.88
2023-01-04T12:08:31.376Z,101864.28
2023-01-04T12:11:02.463Z,101854.00
2023-01-04T12:13:31.462Z,101854.44
2023-01-04T12:16:10.840Z,101848.56
2023-01-04T12:18:43.486Z,101847.34
2023-01-04T12:21:19.316Z,101838.19
2023-01-04T12:23:48.148Z,101831.06
2023-01-04T12:26:16.864Z,101827.19
2023-01-04T12:28:47.340Z,101827.63
2023-01-04T12:31:22.102Z,101826.06
2023-01-04T12:33:51.815Z,101817.38
2023-01-04T12:36:22.210Z,101817.84
2023-01-04T12:38:55.677Z,101824.53
2023-01-04T12:42:03.906Z,101819.41
2023-01-04T12:44:37.444Z,101813.19
2023-01-04T12:47:39.525Z,101822.56
2023-01-04T12:50:11.801Z,101820.97
2023-01-04T12:55:31.740Z,101823.78
2023-01-04T12:58:01.722Z,101823.00
2023-01-04T13:01:09.731Z,101819.81
2023-01-04T13:03:48.633Z,101814.38
2023-01-04T13:06:21.072Z,101803.69
2023-01-04T13:08:51.757Z,101794.62
2023-01-04T13:11:35.959Z,101792.81
2023-01-04T13:14:12.202Z,101784.19
2023-01-04T13:16:50.893Z,101792.81
2023-01-04T13:19:24.792Z,101797.03
2023-01-04T13:21:53.747Z,101794.78
2023-01-04T13:24:27.717Z,101794.41
2023-01-04T13:26:55.617Z,101793.59
2023-01-04T13:29:28.852Z,101789.06
2023-01-04T13:32:03.635Z,101791.88
2023-01-04T13:34:53.839Z,101789.66
2023-01-04T13:37:36.207Z,101785.31
2023-01-04T13:40:16.909Z,101787.81
2023-01-04T13:42:47.795Z,101782.78
2023-01-04T13:45:36.956Z,101782.31
2023-01-04T13:48:10.535Z,101790.53
2023-01-04T13:51:05.560Z,101799.56
2023-01-04T13:53:33.226Z,101804.91
2023-01-04T13:56:03.507Z,101801.53
2023-01-04T13:58:33.260Z,101808.06
2023-01-04T14:01:07.022Z,101809.06
2023-01-04T14:03:37.036Z,101809.53
2023-01-04T14:06:12.060Z,101804.06
2023-01-04T14:08:42.499Z,101800.13
2023-01-04T14:11:41.553Z,101788.00
2023-01-04T14:14:33.283Z,101791.84
2023-01-04T14:17:14.657Z,101791.84
2023-01-04T14:20:05.289Z,101795.87
2023-01-04T14:22:59.518Z,101786.50
2023-01-04T14:25:41.013Z,101790.91
2023-01-04T14:28:32.696Z,101783.69
2023-01-04T14:31:03.706Z,101786.00
2023-01-04T14:33:42.136Z,101781.09
2023-01-04T14:36:10.097Z,101793.06
2023-01-04T14:38:40.438Z,101792.81
2023-01-04T14:41:26.928Z,101796.00
2023-01-04T14:44:00.996Z,101800.56
2023-01-04T14:46:30.859Z,101790.78
2023-01-04T14:48:59.128Z,101784.12
2023-01-04T14:51:35.186Z,101790.13
2023-01-04T14:54:03.469Z,101776.47
2023-01-04T14:56:31.050Z,101775.87
2023-01-04T14:58:58.837Z,101783.59
2023-01-04T15:01:26.784Z,101787.78
2023-01-04T15:03:54.502Z,101785.19
2023-01-04T15:06:22.168Z,101786.69
2023-01-04T15:08:50.273Z,101779.50
2023-01-04T15:11:19.080Z,101790.97
2023-01-04T15:13:46.609Z,101791.97
2023-01-04T15:16:17.688Z,101784.09
2023-01-04T15:18:46.477Z,101789.91
2023-01-04T15:21:14.459Z,101788.38
2023-01-04T15:23:42.116Z,101783.47
2023-01-04T15:26:12.176Z,101778.50
2023-01-04T15:28:40.372Z,101776.94
2023-01-04T15:31:13.641Z,101776.06
2023-01-04T15:33:41.492Z,101769.69
2023-01-04T15:36:16.233Z,101778.91
2023-01-04T15:38:47.996Z,101782.13
2023-01-04T15:41:36.748Z,101782.97
2023-01-04T15:44:04.793Z,101779.59
2023-01-04T15:46:32.443Z,101770.72
2023-01-04T15:49:00.073Z,101772.06
2023-01-04T15:51:28.085Z,101778.28
2023-01-04T15:53:56.674Z,101768.91
2023-01-04T15:56:24.338Z,101761.03
2023-01-04T15:58:54.771Z,101758.00
2023-01-04T16:01:22.939Z,101763.53
2023-01-04T16:03:54.004Z,101761.91
2023-01-04T16:06:23.991Z,101754.63
2023-01-04T16:08:53.068Z,101750.25
2023-01-04T16:11:23.004Z,101755.87
2023-01-04T16:13:52.500Z,101746.25
2023-01-04T16:16:23.020Z,101743.00
2023-01-04T16:18:52.800Z,101739.22
2023-01-04T16:21:23.354Z,101746.56
2023-01-04T16:23:54.886Z,101746.00
2023-01-04T16:26:26.914Z,101740.78
2023-01-04T16:28:55.426Z,101738.34
2023-01-04T16:31:23.320Z,101733.69
2023-01-04T16:33:53.894Z,101734.03
2023-01-04T16:36:21.525Z,101719.09
2023-01-04T16:38:49.321Z,101719.69
2023-01-04T16:41:19.024Z,101717.91
2023-01-04T16:43:51.933Z,101722.53
2023-01-04T16:46:33.407Z,101722.09
2023-01-04T16:49:05.500Z,101718.72
2023-01-04T16:51:35.325Z,101714.34
2023-01-04T16:54:06.129Z,101698.78
2023-01-04T16:56:34.365Z,101702.97
2023-01-04T16:59:03.469Z,101704.78
2023-01-04T17:01:33.951Z,101716.94
2023-01-04T17:04:08.938Z,101727.47
2023-01-04T17:06:39.473Z,101717.91
2023-01-04T17:09:10.030Z,101709.94
2023-01-04T17:12:19.290Z,101704.75
2023-01-04T17:14:28.791Z,101708.56
2023-01-04T17:16:57.390Z,101693.72
2023-01-04T17:19:25.786Z,101685.34
2023-01-04T17:21:53.781Z,101684.16
2023-01-04T17:24:21.512Z,101677.78
2023-01-04T17:26:49.157Z,101674.25
2023-01-04T17:29:19.112Z,101680.72
2023-01-04T17:31:46.704Z,101676.31
2023-01-04T17:34:22.677Z,101678.34
2023-01-04T17:36:51.305Z,101670.97
2023-01-04T17:39:21.010Z,101661.56
2023-01-04T17:41:49.225Z,101658.22
2023-01-04T17:44:17.133Z,101667.22
2023-01-04T17:46:44.745Z,101662.06
2023-01-04T17:49:32.004Z,101669.12
2023-01-04T17:52:00.338Z,101662.75
2023-01-04T17:54:27.864Z,101665.72
2023-01-04T17:56:55.584Z,101651.38
2023-01-04T17:59:23.467Z,101644.88
2023-01-04T18:01:51.232Z,101636.16
2023-01-04T18:04:19.461Z,101637.66
2023-01-04T18:06:47.245Z,101630.41
2023-01-04T18:09:18.590Z,101610.47
2023-01-04T18:11:50.986Z,101613.47
2023-01-04T18:14:19.525Z,101613.75
2023-01-04T18:16:57.202Z,101609.50
2023-01-04T18:19:28.960Z,101604.75
2023-01-04T18:21:58.168Z,101601.12
2023-01-04T18:24:42.178Z,101600.66
2023-01-04T18:27:27.690Z,101602.78
2023-01-04T18:29:56.419Z,101608.53
2023-01-04T18:32:26.162Z,101605.88
2023-01-04T18:34:53.877Z,101603.41
2023-01-04T18:37:22.376Z,101594.94
2023-01-04T18:39:50.180Z,101592.00
2023-01-04T18:42:19.261Z,101585.06
2023-01-04T18:44:49.692Z,101582.47
2023-01-04T18:47:20.091Z,101578.12
2023-01-04T18:49:51.317Z,101580.00
2023-01-04T18:52:19.911Z,101584.78
2023-01-04T18:54:48.713Z,101579.19
2023-01-04T18:57:16.616Z,101574.75
2023-01-04T18:59:44.606Z,101570.19
2023-01-04T19:02:17.562Z,101557.34
2023-01-04T19:04:45.929Z,101569.53
2023-01-04T19:07:14.795Z,101566.44
2023-01-04T19:09:42.867Z,101567.53
2023-01-04T19:12:11.377Z,101553.62
2023-01-04T19:14:39.917Z,101557.28
2023-01-04T19:17:08.987Z,101564.84
2023-01-04T19:19:37.112Z,101564.16
2023-01-04T19:22:05.364Z,101572.00
2023-01-04T19:24:34.230Z,101560.69
2023-01-04T19:27:03.495Z,101567.19
2023-01-04T19:29:34.046Z,101561.66
2023-01-04T19:32:02.634Z,101549.31
2023-01-04T19:34:30.522Z,101548.87
2023-01-04T19:36:58.454Z,101550.41
2023-01-04T19:39:26.306Z,101556.00
2023-01-04T19:41:54.193Z,101559.53
2023-01-04T19:44:22.362Z,101548.63
2023-01-04T19:46:49.974Z,101545.78
2023-01-04T19:49:17.764Z,101534.91
2023-01-04T19:51:47.272Z,101534.16
2023-01-04T19:54:19.915Z,101537.41
2023-01-04T19:56:51.513Z,101534.38
2023-01-04T19:59:20.441Z,101545.50
2023-01-04T20:01:48.676Z,101546.63
2023-01-04T20:04:16.853Z,101536.44
2023-01-04T20:06:44.583Z,101537.44
2023-01-04T20:09:12.521Z,101527.28
2023-01-04T20:11:40.787Z,101530.69
2023-01-04T20:14:08.670Z,101530.50
2023-01-04T20:16:36.375Z,101529.69
2023-01-04T20:19:04.597Z,101530.28
2023-01-04T20:21:32.869Z,101526.91
2023-01-04T20:24:01.170Z,101518.56
2023-01-04T20:26:30.014Z,101512.97
2023-01-04T20:28:58.100Z,101504.19
2023-01-04T20:31:26.294Z,101498.22
2023-01-04T20:33:55.848Z,101496.88
2023-01-04T20:36:29.368Z,101489.50
2023-01-04T20:38:59.732Z,101484.91
2023-01-04T20:41:32.553Z,101473.78
2023-01-04T20:44:02.326Z,101473.16
2023-01-04T20:46:34.287Z,101465.38
2023-01-04T20:49:02.643Z,101468.09
2023-01-04T20:51:30.784Z,101463.81
2023-01-04T20:54:02.007Z,101462.81
2023-01-04T20:56:32.471Z,101461.19
2023-01-04T20:59:00.221Z,101460.19
2023-01-04T21:01:29.130Z,101464.41
2023-01-04T21:03:57.218Z,101469.00
2023-01-04T21:06:24.994Z,101466.38
2023-01-04T21:08:55.084Z,101464.19
2023-01-04T21:11:23.401Z,101461.81
2023-01-04T21:13:52.880Z,101463.78
2023-01-04T21:16:20.866Z,101456.09
2023-01-04T21:18:48.851Z,101450.47
2023-01-04T21:21:18.041Z,101444.94
2023-01-04T21:23:46.597Z,101451.03
2023-01-04T21:26:16.926Z,101442.94
2023-01-04T21:28:45.869Z,101427.75
2023-01-04T21:31:20.007Z,101428.16
2023-01-04T21:33:48.291Z,101424.78
2023-01-04T21:36:22.142Z,101411.09
2023-01-04T21:38:56.853Z,101403.75
2023-01-04T21:41:25.936Z,101397.91
2023-01-04T21:43:56.683Z,101392.53
2023-01-04T21:46:25.295Z,101385.78
2023-01-04T21:48:59.246Z,101384.41
2023-01-04T21:51:28.658Z,101383.38
2023-01-04T21:53:57.377Z,101375.87
2023-01-04T21:56:25.222Z,101375.22
2023-01-04T21:58:53.273Z,101377.88
2023-01-04T22:01:27.269Z,101380.97
2023-01-04T22:03:57.865Z,101373.03
2023-01-04T22:06:25.837Z,101368.75
2023-01-04T22:08:53.741Z,101368.59
2023-01-04T22:11:21.801Z,101364.28
2023-01-04T22:13:50.715Z,101342.44
2023-01-04T22:16:18.682Z,101331.22
2023-01-04T22:18:49.898Z,101325.25
2023-01-04T22:21:19.935Z,101326.94
2023-01-04T22:23:47.853Z,101326.69
2023-01-04T22:26:15.648Z,101327.28
2023-01-04T22:28:43.278Z,101323.28
2023-01-04T22:31:13.306Z,101326.00
2023-01-04T22:33:42.002Z,101320.84
2023-01-04T22:36:21.597Z,101305.72
2023-01-04T22:38:52.127Z,101311.47
2023-01-04T22:41:21.492Z,101311.31
2023-01-04T22:43:57.822Z,101299.72
2023-01-04T22:46:27.161Z,101304.63
2023-01-04T22:48:55.219Z,101296.72
2023-01-04T22:51:24.656Z,101288.47
2023-01-04T22:53:57.511Z,101282.88
2023-01-04T22:56:25.455Z,101287.97
2023-01-04T22:58:55.574Z,101264.37
2023-01-04T23:01:30.316Z,101268.69
2023-01-04T23:04:00.608Z,101250.22
2023-01-04T23:06:29.483Z,101227.66
2023-01-04T23:08:59.796Z,101207.13
2023-01-04T23:11:29.825Z,101207.53
2023-01-04T23:13:57.968Z,101213.19
2023-01-04T23:16:31.826Z,101206.97
2023-01-04T23:19:05.721Z,101203.34
2023-01-04T23:21:34.601Z,101196.81
2023-01-04T23:24:03.416Z,101197.34
2023-01-04T23:26:32.867Z,101203.63
2023-01-04T23:29:01.306Z,101200.22
2023-01-04T23:31:31.365Z,101186.03
2023-01-04T23:34:02.250Z,101188.25
2023-01-04T23:36:35.698Z,101185.59
2023-01-04T23:39:06.885Z,101184.19
2023-01-04T23:41:44.572Z,101181.25
2023-01-04T23:44:14.617Z,101186.09
2023-01-04T23:46:42.652Z,101178.12
2023-01-04T23:49:12.009Z,101183.53
2023-01-04T23:51:39.993Z,101179.16
2023-01-04T23:54:09.093Z,101182.41
2023-01-04T23:56:37.924Z,101189.00
2023-01-04T23:59:05.784Z,101186.25
